sensor_id;sensor_type;location;lat;lon;timestamp;P1;durP1;ratioP1;P2;durP2;ratioP2
21681;SDS011;11002;48.256;10.084;2023-08-06T00:00:02;0.88;;;0.88;;
21681;SDS011;11002;48.256;10.084;2023-08-06T00:02:34;0.98;;;0.85;;
21681;SDS011;11002;48.256;10.084;2023-08-06T00:05:01;1.17;;;0.88;;
21681;SDS011;11002;48.256;10.084;2023-08-06T00:07:29;1.77;;;0.95;;
21681;SDS011;11002;48.256;10.084;2023-08-06T00:09:56;1.20;;;1.10;;
21681;SDS011;11002;48.256;10.084;2023-08-06T00:12:25;1.83;;;0.90;;
21681;SDS011;11002;48.256;10.084;2023-08-06T00:14:53;0.90;;;0.82;;
21681;SDS011;11002;48.256;10.084;2023-08-06T00:17:20;1.73;;;1.35;;
21681;SDS011;11002;48.256;10.084;2023-08-06T00:19:47;1.17;;;0.90;;
21681;SDS011;11002;48.256;10.084;2023-08-06T00:22:14;1.25;;;1.10;;
21681;SDS011;11002;48.256;10.084;2023-08-06T00:24:42;1.10;;;1.00;;
21681;SDS011;11002;48.256;10.084;2023-08-06T00:27:09;0.95;;;0.82;;
21681;SDS011;11002;48.256;10.084;2023-08-06T00:29:37;1.17;;;0.90;;
21681;SDS011;11002;48.256;10.084;2023-08-06T00:32:05;2.92;;;0.85;;
21681;SDS011;11002;48.256;10.084;2023-08-06T00:34:32;0.77;;;0.77;;
21681;SDS011;11002;48.256;10.084;2023-08-06T00:36:59;1.08;;;0.98;;
21681;SDS011;11002;48.256;10.084;2023-08-06T00:39:27;0.55;;;0.55;;
21681;SDS011;11002;48.256;10.084;2023-08-06T00:41:54;1.67;;;0.57;;
21681;SDS011;11002;48.256;10.084;2023-08-06T00:44:21;0.70;;;0.70;;
21681;SDS011;11002;48.256;10.084;2023-08-06T00:46:50;0.88;;;0.85;;
21681;SDS011;11002;48.256;10.084;2023-08-06T00:49:17;0.90;;;0.90;;
21681;SDS011;11002;48.256;10.084;2023-08-06T00:51:45;0.77;;;0.77;;
21681;SDS011;11002;48.256;10.084;2023-08-06T00:54:13;0.80;;;0.80;;
21681;SDS011;11002;48.256;10.084;2023-08-06T00:56:41;0.85;;;0.82;;
21681;SDS011;11002;48.256;10.084;2023-08-06T00:59:09;0.93;;;0.82;;
21681;SDS011;11002;48.256;10.084;2023-08-06T01:01:38;1.25;;;1.05;;
21681;SDS011;11002;48.256;10.084;2023-08-06T01:04:06;1.50;;;0.73;;
21681;SDS011;11002;48.256;10.084;2023-08-06T01:06:35;0.63;;;0.63;;
21681;SDS011;11002;48.256;10.084;2023-08-06T01:09:10;1.45;;;0.93;;
21681;SDS011;11002;48.256;10.084;2023-08-06T01:11:48;0.95;;;0.93;;
21681;SDS011;11002;48.256;10.084;2023-08-06T01:14:26;1.55;;;0.98;;
21681;SDS011;11002;48.256;10.084;2023-08-06T01:17:00;1.35;;;1.10;;
21681;SDS011;11002;48.256;10.084;2023-08-06T01:19:30;0.93;;;0.85;;
21681;SDS011;11002;48.256;10.084;2023-08-06T01:21:59;1.23;;;1.10;;
21681;SDS011;11002;48.256;10.084;2023-08-06T01:24:26;1.35;;;1.05;;
21681;SDS011;11002;48.256;10.084;2023-08-06T01:26:54;1.40;;;1.30;;
21681;SDS011;11002;48.256;10.084;2023-08-06T01:29:30;1.63;;;1.08;;
21681;SDS011;11002;48.256;10.084;2023-08-06T01:32:01;1.10;;;1.00;;
21681;SDS011;11002;48.256;10.084;2023-08-06T01:34:32;2.15;;;1.20;;
21681;SDS011;11002;48.256;10.084;2023-08-06T01:37:03;3.38;;;1.00;;
21681;SDS011;11002;48.256;10.084;2023-08-06T01:39:34;0.93;;;0.90;;
21681;SDS011;11002;48.256;10.084;2023-08-06T01:42:03;1.00;;;0.90;;
21681;SDS011;11002;48.256;10.084;2023-08-06T01:44:30;2.38;;;1.30;;
21681;SDS011;11002;48.256;10.084;2023-08-06T01:46:59;1.45;;;1.13;;
21681;SDS011;11002;48.256;10.084;2023-08-06T01:49:26;1.13;;;1.00;;
21681;SDS011;11002;48.256;10.084;2023-08-06T01:51:54;1.50;;;1.25;;
21681;SDS011;11002;48.256;10.084;2023-08-06T01:54:23;1.27;;;0.90;;
21681;SDS011;11002;48.256;10.084;2023-08-06T01:56:50;1.35;;;0.85;;
21681;SDS011;11002;48.256;10.084;2023-08-06T01:59:17;1.85;;;1.00;;
21681;SDS011;11002;48.256;10.084;2023-08-06T02:01:45;1.10;;;1.00;;
21681;SDS011;11002;48.256;10.084;2023-08-06T02:04:13;1.58;;;1.08;;
21681;SDS011;11002;48.256;10.084;2023-08-06T02:06:40;1.17;;;1.02;;
21681;SDS011;11002;48.256;10.084;2023-08-06T02:09:07;6.55;;;1.35;;
21681;SDS011;11002;48.256;10.084;2023-08-06T02:11:36;3.85;;;1.55;;
21681;SDS011;11002;48.256;10.084;2023-08-06T02:14:04;2.58;;;1.00;;
21681;SDS011;11002;48.256;10.084;2023-08-06T02:16:31;1.30;;;1.20;;
21681;SDS011;11002;48.256;10.084;2023-08-06T02:18:58;1.70;;;1.15;;
21681;SDS011;11002;48.256;10.084;2023-08-06T02:21:26;1.02;;;1.02;;
21681;SDS011;11002;48.256;10.084;2023-08-06T02:23:53;1.35;;;1.10;;
21681;SDS011;11002;48.256;10.084;2023-08-06T02:26:21;1.05;;;1.00;;
21681;SDS011;11002;48.256;10.084;2023-08-06T02:28:49;2.75;;;1.20;;
21681;SDS011;11002;48.256;10.084;2023-08-06T02:31:16;1.48;;;1.23;;
21681;SDS011;11002;48.256;10.084;2023-08-06T02:33:44;6.20;;;1.10;;
21681;SDS011;11002;48.256;10.084;2023-08-06T02:36:11;1.50;;;1.17;;
21681;SDS011;11002;48.256;10.084;2023-08-06T02:38:38;1.33;;;1.00;;
21681;SDS011;11002;48.256;10.084;2023-08-06T02:41:06;1.10;;;1.00;;
21681;SDS011;11002;48.256;10.084;2023-08-06T02:43:33;1.20;;;1.10;;
21681;SDS011;11002;48.256;10.084;2023-08-06T02:46:02;2.03;;;1.20;;
21681;SDS011;11002;48.256;10.084;2023-08-06T02:48:29;1.50;;;1.00;;
21681;SDS011;11002;48.256;10.084;2023-08-06T02:50:57;1.50;;;1.08;;
21681;SDS011;11002;48.256;10.084;2023-08-06T02:53:26;4.63;;;1.10;;
21681;SDS011;11002;48.256;10.084;2023-08-06T02:55:54;1.13;;;1.02;;
21681;SDS011;11002;48.256;10.084;2023-08-06T02:58:28;1.20;;;1.10;;
21681;SDS011;11002;48.256;10.084;2023-08-06T03:01:17;1.38;;;1.10;;
21681;SDS011;11002;48.256;10.084;2023-08-06T03:03:52;0.82;;;0.80;;
21681;SDS011;11002;48.256;10.084;2023-08-06T03:06:25;3.23;;;1.10;;
21681;SDS011;11002;48.256;10.084;2023-08-06T03:08:55;1.10;;;0.98;;
21681;SDS011;11002;48.256;10.084;2023-08-06T03:11:23;1.10;;;1.00;;
21681;SDS011;11002;48.256;10.084;2023-08-06T03:13:55;0.88;;;0.77;;
21681;SDS011;11002;48.256;10.084;2023-08-06T03:16:24;1.27;;;1.10;;
21681;SDS011;11002;48.256;10.084;2023-08-06T03:18:51;2.33;;;1.20;;
21681;SDS011;11002;48.256;10.084;2023-08-06T03:21:20;3.47;;;0.90;;
21681;SDS011;11002;48.256;10.084;2023-08-06T03:23:47;1.08;;;0.75;;
21681;SDS011;11002;48.256;10.084;2023-08-06T03:26:17;0.90;;;0.90;;
21681;SDS011;11002;48.256;10.084;2023-08-06T03:28:46;1.15;;;1.05;;
21681;SDS011;11002;48.256;10.084;2023-08-06T03:31:14;2.85;;;0.82;;
21681;SDS011;11002;48.256;10.084;2023-08-06T03:33:45;1.45;;;0.90;;
21681;SDS011;11002;48.256;10.084;2023-08-06T03:36:20;1.02;;;0.93;;
21681;SDS011;11002;48.256;10.084;2023-08-06T03:38:49;3.60;;;1.10;;
21681;SDS011;11002;48.256;10.084;2023-08-06T03:41:16;1.63;;;0.98;;
21681;SDS011;11002;48.256;10.084;2023-08-06T03:43:44;0.93;;;0.70;;
21681;SDS011;11002;48.256;10.084;2023-08-06T03:46:18;2.15;;;0.93;;
21681;SDS011;11002;48.256;10.084;2023-08-06T03:48:47;0.80;;;0.73;;
21681;SDS011;11002;48.256;10.084;2023-08-06T03:51:14;0.90;;;0.90;;
21681;SDS011;11002;48.256;10.084;2023-08-06T03:53:44;1.00;;;0.90;;
21681;SDS011;11002;48.256;10.084;2023-08-06T03:56:11;1.20;;;0.95;;
21681;SDS011;11002;48.256;10.084;2023-08-06T03:58:39;1.27;;;0.90;;
21681;SDS011;11002;48.256;10.084;2023-08-06T04:01:07;1.23;;;0.90;;
21681;SDS011;11002;48.256;10.084;2023-08-06T04:03:42;1.35;;;0.77;;
21681;SDS011;11002;48.256;10.084;2023-08-06T04:06:10;1.02;;;0.88;;
21681;SDS011;11002;48.256;10.084;2023-08-06T04:08:38;0.82;;;0.82;;
21681;SDS011;11002;48.256;10.084;2023-08-06T04:11:07;1.65;;;1.05;;
21681;SDS011;11002;48.256;10.084;2023-08-06T04:13:34;0.98;;;0.77;;
21681;SDS011;11002;48.256;10.084;2023-08-06T04:16:01;1.58;;;0.90;;
21681;SDS011;11002;48.256;10.084;2023-08-06T04:18:31;1.00;;;0.90;;
21681;SDS011;11002;48.256;10.084;2023-08-06T04:20:58;2.80;;;0.70;;
21681;SDS011;11002;48.256;10.084;2023-08-06T04:25:59;2.90;;;1.20;;
21681;SDS011;11002;48.256;10.084;2023-08-06T04:28:31;1.00;;;0.85;;
21681;SDS011;11002;48.256;10.084;2023-08-06T04:30:58;1.08;;;0.90;;
21681;SDS011;11002;48.256;10.084;2023-08-06T04:33:26;2.28;;;0.88;;
21681;SDS011;11002;48.256;10.084;2023-08-06T04:35:56;1.60;;;1.02;;
21681;SDS011;11002;48.256;10.084;2023-08-06T04:38:25;3.60;;;1.40;;
21681;SDS011;11002;48.256;10.084;2023-08-06T04:40:54;1.13;;;0.93;;
21681;SDS011;11002;48.256;10.084;2023-08-06T04:43:24;1.05;;;0.82;;
21681;SDS011;11002;48.256;10.084;2023-08-06T04:45:53;1.75;;;1.10;;
21681;SDS011;11002;48.256;10.084;2023-08-06T04:48:20;2.08;;;1.17;;
21681;SDS011;11002;48.256;10.084;2023-08-06T04:50:48;1.25;;;1.00;;
21681;SDS011;11002;48.256;10.084;2023-08-06T04:53:16;1.05;;;1.00;;
21681;SDS011;11002;48.256;10.084;2023-08-06T04:55:43;1.23;;;0.95;;
21681;SDS011;11002;48.256;10.084;2023-08-06T04:58:11;2.35;;;0.82;;
21681;SDS011;11002;48.256;10.084;2023-08-06T05:00:40;1.67;;;1.20;;
21681;SDS011;11002;48.256;10.084;2023-08-06T05:03:08;1.05;;;0.95;;
21681;SDS011;11002;48.256;10.084;2023-08-06T05:05:35;1.10;;;0.90;;
21681;SDS011;11002;48.256;10.084;2023-08-06T05:08:02;1.15;;;0.98;;
21681;SDS011;11002;48.256;10.084;2023-08-06T05:10:30;1.95;;;1.20;;
21681;SDS011;11002;48.256;10.084;2023-08-06T05:12:57;2.65;;;1.17;;
21681;SDS011;11002;48.256;10.084;2023-08-06T05:15:24;1.45;;;1.10;;
21681;SDS011;11002;48.256;10.084;2023-08-06T05:17:53;1.08;;;0.98;;
21681;SDS011;11002;48.256;10.084;2023-08-06T05:20:20;0.90;;;0.73;;
21681;SDS011;11002;48.256;10.084;2023-08-06T05:22:47;1.13;;;1.10;;
21681;SDS011;11002;48.256;10.084;2023-08-06T05:25:14;1.20;;;0.70;;
21681;SDS011;11002;48.256;10.084;2023-08-06T05:27:42;1.00;;;0.73;;
21681;SDS011;11002;48.256;10.084;2023-08-06T05:30:09;1.25;;;0.57;;
21681;SDS011;11002;48.256;10.084;2023-08-06T05:32:37;4.40;;;0.90;;
21681;SDS011;11002;48.256;10.084;2023-08-06T05:35:06;1.20;;;0.90;;
21681;SDS011;11002;48.256;10.084;2023-08-06T05:37:33;1.63;;;0.93;;
21681;SDS011;11002;48.256;10.084;2023-08-06T05:40:01;2.25;;;0.90;;
21681;SDS011;11002;48.256;10.084;2023-08-06T05:42:29;1.83;;;0.75;;
21681;SDS011;11002;48.256;10.084;2023-08-06T05:44:57;1.10;;;1.00;;
21681;SDS011;11002;48.256;10.084;2023-08-06T05:47:24;0.90;;;0.70;;
21681;SDS011;11002;48.256;10.084;2023-08-06T05:49:51;0.68;;;0.68;;
21681;SDS011;11002;48.256;10.084;2023-08-06T05:52:20;0.85;;;0.65;;
21681;SDS011;11002;48.256;10.084;2023-08-06T05:54:47;1.90;;;0.93;;
21681;SDS011;11002;48.256;10.084;2023-08-06T05:57:14;6.38;;;1.08;;
21681;SDS011;11002;48.256;10.084;2023-08-06T05:59:41;1.00;;;0.80;;
21681;SDS011;11002;48.256;10.084;2023-08-06T06:02:09;1.00;;;0.52;;
21681;SDS011;11002;48.256;10.084;2023-08-06T06:04:36;0.85;;;0.50;;
21681;SDS011;11002;48.256;10.084;2023-08-06T06:07:04;0.40;;;0.40;;
21681;SDS011;11002;48.256;10.084;2023-08-06T06:09:32;0.90;;;0.57;;
21681;SDS011;11002;48.256;10.084;2023-08-06T06:12:00;1.00;;;0.60;;
21681;SDS011;11002;48.256;10.084;2023-08-06T06:14:27;0.35;;;0.32;;
21681;SDS011;11002;48.256;10.084;2023-08-06T06:16:54;1.08;;;0.55;;
21681;SDS011;11002;48.256;10.084;2023-08-06T06:19:21;0.90;;;0.60;;
21681;SDS011;11002;48.256;10.084;2023-08-06T06:21:48;0.68;;;0.40;;
21681;SDS011;11002;48.256;10.084;2023-08-06T06:24:16;0.60;;;0.47;;
21681;SDS011;11002;48.256;10.084;2023-08-06T06:26:44;0.77;;;0.45;;
21681;SDS011;11002;48.256;10.084;2023-08-06T06:29:11;1.45;;;0.50;;
21681;SDS011;11002;48.256;10.084;2023-08-06T06:31:39;0.77;;;0.40;;
21681;SDS011;11002;48.256;10.084;2023-08-06T06:34:06;1.55;;;0.43;;
21681;SDS011;11002;48.256;10.084;2023-08-06T06:36:33;0.82;;;0.40;;
21681;SDS011;11002;48.256;10.084;2023-08-06T06:39:00;1.25;;;0.57;;
21681;SDS011;11002;48.256;10.084;2023-08-06T06:41:27;1.25;;;0.35;;
21681;SDS011;11002;48.256;10.084;2023-08-06T06:44:05;1.42;;;0.50;;
21681;SDS011;11002;48.256;10.084;2023-08-06T06:46:32;0.75;;;0.35;;
21681;SDS011;11002;48.256;10.084;2023-08-06T06:48:59;0.13;;;0.13;;
21681;SDS011;11002;48.256;10.084;2023-08-06T06:51:27;0.30;;;0.20;;
21681;SDS011;11002;48.256;10.084;2023-08-06T06:53:54;0.63;;;0.40;;
21681;SDS011;11002;48.256;10.084;2023-08-06T06:56:21;0.30;;;0.30;;
21681;SDS011;11002;48.256;10.084;2023-08-06T06:58:48;1.17;;;0.40;;
21681;SDS011;11002;48.256;10.084;2023-08-06T07:01:17;0.20;;;0.20;;
21681;SDS011;11002;48.256;10.084;2023-08-06T07:03:44;0.52;;;0.30;;
21681;SDS011;11002;48.256;10.084;2023-08-06T07:06:12;0.55;;;0.30;;
21681;SDS011;11002;48.256;10.084;2023-08-06T07:08:41;0.10;;;0.10;;
21681;SDS011;11002;48.256;10.084;2023-08-06T07:11:08;0.30;;;0.30;;
21681;SDS011;11002;48.256;10.084;2023-08-06T07:13:35;1.73;;;0.20;;
21681;SDS011;11002;48.256;10.084;2023-08-06T07:16:02;0.73;;;0.20;;
21681;SDS011;11002;48.256;10.084;2023-08-06T07:18:31;0.52;;;0.30;;
21681;SDS011;11002;48.256;10.084;2023-08-06T07:20:58;0.40;;;0.20;;
21681;SDS011;11002;48.256;10.084;2023-08-06T07:23:26;1.00;;;0.25;;
21681;SDS011;11002;48.256;10.084;2023-08-06T07:25:53;0.35;;;0.22;;
21681;SDS011;11002;48.256;10.084;2023-08-06T07:28:22;0.10;;;0.00;;
21681;SDS011;11002;48.256;10.084;2023-08-06T07:30:53;1.00;;;0.20;;
21681;SDS011;11002;48.256;10.084;2023-08-06T07:33:20;1.08;;;0.20;;
21681;SDS011;11002;48.256;10.084;2023-08-06T07:35:49;0.88;;;0.20;;
21681;SDS011;11002;48.256;10.084;2023-08-06T07:38:16;0.35;;;0.17;;
21681;SDS011;11002;48.256;10.084;2023-08-06T07:40:44;0.17;;;0.17;;
21681;SDS011;11002;48.256;10.084;2023-08-06T07:43:11;1.75;;;0.25;;
21681;SDS011;11002;48.256;10.084;2023-08-06T07:45:39;0.68;;;0.32;;
21681;SDS011;11002;48.256;10.084;2023-08-06T07:48:06;0.17;;;0.10;;
21681;SDS011;11002;48.256;10.084;2023-08-06T07:50:33;1.75;;;0.10;;
21681;SDS011;11002;48.256;10.084;2023-08-06T07:53:02;0.10;;;0.10;;
21681;SDS011;11002;48.256;10.084;2023-08-06T07:55:29;0.93;;;0.13;;
21681;SDS011;11002;48.256;10.084;2023-08-06T07:57:56;0.57;;;0.28;;
21681;SDS011;11002;48.256;10.084;2023-08-06T08:00:24;2.72;;;0.10;;
21681;SDS011;11002;48.256;10.084;2023-08-06T08:02:51;0.32;;;0.20;;
21681;SDS011;11002;48.256;10.084;2023-08-06T08:05:18;0.32;;;0.08;;
21681;SDS011;11002;48.256;10.084;2023-08-06T08:07:45;0.15;;;0.00;;
21681;SDS011;11002;48.256;10.084;2023-08-06T08:10:14;0.28;;;0.20;;
21681;SDS011;11002;48.256;10.084;2023-08-06T08:12:41;0.00;;;0.00;;
21681;SDS011;11002;48.256;10.084;2023-08-06T08:15:09;0.00;;;0.00;;
21681;SDS011;11002;48.256;10.084;2023-08-06T08:17:36;0.00;;;0.00;;
21681;SDS011;11002;48.256;10.084;2023-08-06T08:20:04;0.00;;;0.00;;
21681;SDS011;11002;48.256;10.084;2023-08-06T08:22:32;0.00;;;0.00;;
21681;SDS011;11002;48.256;10.084;2023-08-06T08:24:59;0.30;;;0.15;;
21681;SDS011;11002;48.256;10.084;2023-08-06T08:27:28;0.15;;;0.08;;
21681;SDS011;11002;48.256;10.084;2023-08-06T08:29:56;0.85;;;0.00;;
21681;SDS011;11002;48.256;10.084;2023-08-06T08:32:23;0.40;;;0.05;;
21681;SDS011;11002;48.256;10.084;2023-08-06T08:34:50;0.00;;;0.00;;
21681;SDS011;11002;48.256;10.084;2023-08-06T08:37:18;0.00;;;0.00;;
21681;SDS011;11002;48.256;10.084;2023-08-06T08:39:45;1.13;;;0.00;;
21681;SDS011;11002;48.256;10.084;2023-08-06T08:42:12;0.30;;;0.10;;
21681;SDS011;11002;48.256;10.084;2023-08-06T08:44:41;0.47;;;0.00;;
21681;SDS011;11002;48.256;10.084;2023-08-06T08:47:09;0.52;;;0.10;;
21681;SDS011;11002;48.256;10.084;2023-08-06T08:49:37;0.00;;;0.00;;
21681;SDS011;11002;48.256;10.084;2023-08-06T08:52:06;0.00;;;0.00;;
21681;SDS011;11002;48.256;10.084;2023-08-06T08:54:37;0.03;;;0.03;;
21681;SDS011;11002;48.256;10.084;2023-08-06T08:57:05;0.52;;;0.15;;
21681;SDS011;11002;48.256;10.084;2023-08-06T08:59:32;0.00;;;0.00;;
21681;SDS011;11002;48.256;10.084;2023-08-06T09:02:01;0.10;;;0.00;;
21681;SDS011;11002;48.256;10.084;2023-08-06T09:04:29;0.03;;;0.03;;
21681;SDS011;11002;48.256;10.084;2023-08-06T09:06:57;0.40;;;0.10;;
21681;SDS011;11002;48.256;10.084;2023-08-06T09:09:26;1.38;;;0.00;;
21681;SDS011;11002;48.256;10.084;2023-08-06T09:12:00;0.10;;;0.10;;
21681;SDS011;11002;48.256;10.084;2023-08-06T09:14:28;0.32;;;0.10;;
21681;SDS011;11002;48.256;10.084;2023-08-06T09:16:56;0.20;;;0.10;;
21681;SDS011;11002;48.256;10.084;2023-08-06T09:19:25;0.17;;;0.10;;
21681;SDS011;11002;48.256;10.084;2023-08-06T09:21:55;0.05;;;0.00;;
21681;SDS011;11002;48.256;10.084;2023-08-06T09:24:22;0.15;;;0.05;;
21681;SDS011;11002;48.256;10.084;2023-08-06T09:26:50;1.00;;;0.10;;
21681;SDS011;11002;48.256;10.084;2023-08-06T09:29:17;2.53;;;1.65;;
21681;SDS011;11002;48.256;10.084;2023-08-06T09:31:45;0.70;;;0.20;;
21681;SDS011;11002;48.256;10.084;2023-08-06T09:34:14;0.15;;;0.10;;
21681;SDS011;11002;48.256;10.084;2023-08-06T09:36:44;0.52;;;0.10;;
21681;SDS011;11002;48.256;10.084;2023-08-06T09:39:14;0.20;;;0.17;;
21681;SDS011;11002;48.256;10.084;2023-08-06T09:41:41;1.65;;;0.10;;
21681;SDS011;11002;48.256;10.084;2023-08-06T09:44:15;0.00;;;0.00;;
21681;SDS011;11002;48.256;10.084;2023-08-06T09:46:46;0.10;;;0.00;;
21681;SDS011;11002;48.256;10.084;2023-08-06T09:49:14;0.50;;;0.00;;
21681;SDS011;11002;48.256;10.084;2023-08-06T09:51:41;0.30;;;0.20;;
21681;SDS011;11002;48.256;10.084;2023-08-06T09:54:11;0.00;;;0.00;;
21681;SDS011;11002;48.256;10.084;2023-08-06T09:56:39;0.00;;;0.00;;
21681;SDS011;11002;48.256;10.084;2023-08-06T09:59:08;0.20;;;0.03;;
21681;SDS011;11002;48.256;10.084;2023-08-06T10:01:37;1.65;;;0.00;;
21681;SDS011;11002;48.256;10.084;2023-08-06T10:04:05;0.00;;;0.00;;
21681;SDS011;11002;48.256;10.084;2023-08-06T10:06:34;0.73;;;0.10;;
21681;SDS011;11002;48.256;10.084;2023-08-06T10:09:03;0.00;;;0.00;;
21681;SDS011;11002;48.256;10.084;2023-08-06T10:11:31;0.10;;;0.00;;
21681;SDS011;11002;48.256;10.084;2023-08-06T10:14:00;1.58;;;0.80;;
21681;SDS011;11002;48.256;10.084;2023-08-06T10:16:32;0.80;;;0.60;;
21681;SDS011;11002;48.256;10.084;2023-08-06T10:19:00;0.22;;;0.00;;
21681;SDS011;11002;48.256;10.084;2023-08-06T10:21:30;0.10;;;0.00;;
21681;SDS011;11002;48.256;10.084;2023-08-06T10:23:57;0.10;;;0.10;;
21681;SDS011;11002;48.256;10.084;2023-08-06T10:26:28;0.95;;;0.10;;
21681;SDS011;11002;48.256;10.084;2023-08-06T10:28:56;0.00;;;0.00;;
21681;SDS011;11002;48.256;10.084;2023-08-06T10:34:20;0.00;;;0.00;;
21681;SDS011;11002;48.256;10.084;2023-08-06T10:36:47;0.68;;;0.32;;
21681;SDS011;11002;48.256;10.084;2023-08-06T10:39:14;0.40;;;0.30;;
21681;SDS011;11002;48.256;10.084;2023-08-06T10:41:43;1.30;;;0.55;;
21681;SDS011;11002;48.256;10.084;2023-08-06T10:44:10;0.80;;;0.28;;
21681;SDS011;11002;48.256;10.084;2023-08-06T10:46:38;2.35;;;0.68;;
21681;SDS011;11002;48.256;10.084;2023-08-06T10:49:05;0.22;;;0.17;;
21681;SDS011;11002;48.256;10.084;2023-08-06T10:51:33;0.32;;;0.22;;
21681;SDS011;11002;48.256;10.084;2023-08-06T10:54:01;1.08;;;0.30;;
21681;SDS011;11002;48.256;10.084;2023-08-06T10:56:29;0.40;;;0.30;;
21681;SDS011;11002;48.256;10.084;2023-08-06T10:58:58;0.80;;;0.40;;
21681;SDS011;11002;48.256;10.084;2023-08-06T11:01:28;2.15;;;0.50;;
21681;SDS011;11002;48.256;10.084;2023-08-06T11:03:55;0.17;;;0.00;;
21681;SDS011;11002;48.256;10.084;2023-08-06T11:06:27;0.20;;;0.10;;
21681;SDS011;11002;48.256;10.084;2023-08-06T11:08:54;1.50;;;0.40;;
21681;SDS011;11002;48.256;10.084;2023-08-06T11:11:22;0.22;;;0.22;;
21681;SDS011;11002;48.256;10.084;2023-08-06T11:13:50;0.00;;;0.00;;
21681;SDS011;11002;48.256;10.084;2023-08-06T11:16:20;0.47;;;0.25;;
21681;SDS011;11002;48.256;10.084;2023-08-06T11:18:49;0.77;;;0.45;;
21681;SDS011;11002;48.256;10.084;2023-08-06T11:21:20;0.10;;;0.10;;
21681;SDS011;11002;48.256;10.084;2023-08-06T11:23:47;0.30;;;0.30;;
21681;SDS011;11002;48.256;10.084;2023-08-06T11:26:18;0.50;;;0.10;;
21681;SDS011;11002;48.256;10.084;2023-08-06T11:28:46;0.75;;;0.47;;
21681;SDS011;11002;48.256;10.084;2023-08-06T11:31:19;0.10;;;0.10;;
21681;SDS011;11002;48.256;10.084;2023-08-06T11:33:47;0.10;;;0.05;;
21681;SDS011;11002;48.256;10.084;2023-08-06T11:36:14;0.35;;;0.10;;
21681;SDS011;11002;48.256;10.084;2023-08-06T11:38:41;0.52;;;0.10;;
21681;SDS011;11002;48.256;10.084;2023-08-06T11:41:09;0.35;;;0.10;;
21681;SDS011;11002;48.256;10.084;2023-08-06T11:43:36;0.00;;;0.00;;
21681;SDS011;11002;48.256;10.084;2023-08-06T11:46:03;0.25;;;0.10;;
21681;SDS011;11002;48.256;10.084;2023-08-06T11:48:32;0.08;;;0.08;;
21681;SDS011;11002;48.256;10.084;2023-08-06T11:50:59;0.40;;;0.03;;
21681;SDS011;11002;48.256;10.084;2023-08-06T11:53:27;0.13;;;0.10;;
21681;SDS011;11002;48.256;10.084;2023-08-06T11:55:55;1.55;;;0.10;;
21681;SDS011;11002;48.256;10.084;2023-08-06T11:58:22;0.10;;;0.00;;
21681;SDS011;11002;48.256;10.084;2023-08-06T12:00:49;0.43;;;0.00;;
21681;SDS011;11002;48.256;10.084;2023-08-06T12:03:18;0.10;;;0.00;;
21681;SDS011;11002;48.256;10.084;2023-08-06T12:05:47;0.00;;;0.00;;
21681;SDS011;11002;48.256;10.084;2023-08-06T12:08:14;0.00;;;0.00;;
21681;SDS011;11002;48.256;10.084;2023-08-06T12:10:42;0.10;;;0.00;;
21681;SDS011;11002;48.256;10.084;2023-08-06T12:13:09;0.22;;;0.03;;
21681;SDS011;11002;48.256;10.084;2023-08-06T12:15:36;0.00;;;0.00;;
21681;SDS011;11002;48.256;10.084;2023-08-06T12:18:04;0.00;;;0.00;;
21681;SDS011;11002;48.256;10.084;2023-08-06T12:20:31;0.20;;;0.00;;
21681;SDS011;11002;48.256;10.084;2023-08-06T12:23:00;0.35;;;0.10;;
21681;SDS011;11002;48.256;10.084;2023-08-06T12:25:27;0.10;;;0.10;;
21681;SDS011;11002;48.256;10.084;2023-08-06T12:27:54;0.90;;;0.20;;
21681;SDS011;11002;48.256;10.084;2023-08-06T12:30:22;0.10;;;0.10;;
21681;SDS011;11002;48.256;10.084;2023-08-06T12:32:49;0.00;;;0.00;;
21681;SDS011;11002;48.256;10.084;2023-08-06T12:35:17;0.17;;;0.10;;
21681;SDS011;11002;48.256;10.084;2023-08-06T12:37:45;0.00;;;0.00;;
21681;SDS011;11002;48.256;10.084;2023-08-06T12:40:14;0.03;;;0.03;;
21681;SDS011;11002;48.256;10.084;2023-08-06T12:42:41;0.00;;;0.00;;
21681;SDS011;11002;48.256;10.084;2023-08-06T12:45:08;0.08;;;0.08;;
21681;SDS011;11002;48.256;10.084;2023-08-06T12:47:36;0.00;;;0.00;;
21681;SDS011;11002;48.256;10.084;2023-08-06T12:50:03;0.00;;;0.00;;
21681;SDS011;11002;48.256;10.084;2023-08-06T12:52:31;0.00;;;0.00;;
21681;SDS011;11002;48.256;10.084;2023-08-06T12:54:58;0.03;;;0.00;;
21681;SDS011;11002;48.256;10.084;2023-08-06T12:57:27;0.10;;;0.10;;
21681;SDS011;11002;48.256;10.084;2023-08-06T12:59:55;0.15;;;0.00;;
21681;SDS011;11002;48.256;10.084;2023-08-06T13:02:22;0.20;;;0.10;;
21681;SDS011;11002;48.256;10.084;2023-08-06T13:04:49;0.00;;;0.00;;
21681;SDS011;11002;48.256;10.084;2023-08-06T13:07:16;0.00;;;0.00;;
21681;SDS011;11002;48.256;10.084;2023-08-06T13:09:43;0.10;;;0.00;;
21681;SDS011;11002;48.256;10.084;2023-08-06T13:12:10;0.10;;;0.10;;
21681;SDS011;11002;48.256;10.084;2023-08-06T13:14:39;0.90;;;0.00;;
21681;SDS011;11002;48.256;10.084;2023-08-06T13:17:06;0.20;;;0.05;;
21681;SDS011;11002;48.256;10.084;2023-08-06T13:19:35;0.30;;;0.10;;
21681;SDS011;11002;48.256;10.084;2023-08-06T13:22:03;0.00;;;0.00;;
21681;SDS011;11002;48.256;10.084;2023-08-06T13:24:30;0.10;;;0.10;;
21681;SDS011;11002;48.256;10.084;2023-08-06T13:26:58;0.00;;;0.00;;
21681;SDS011;11002;48.256;10.084;2023-08-06T13:29:25;0.00;;;0.00;;
21681;SDS011;11002;48.256;10.084;2023-08-06T13:31:54;0.10;;;0.10;;
21681;SDS011;11002;48.256;10.084;2023-08-06T13:34:21;0.00;;;0.00;;
21681;SDS011;11002;48.256;10.084;2023-08-06T13:36:48;0.08;;;0.08;;
21681;SDS011;11002;48.256;10.084;2023-08-06T13:39:16;0.10;;;0.10;;
21681;SDS011;11002;48.256;10.084;2023-08-06T13:41:43;0.15;;;0.10;;
21681;SDS011;11002;48.256;10.084;2023-08-06T13:44:11;0.00;;;0.00;;
21681;SDS011;11002;48.256;10.084;2023-08-06T13:46:40;0.00;;;0.00;;
21681;SDS011;11002;48.256;10.084;2023-08-06T13:49:09;0.10;;;0.10;;
21681;SDS011;11002;48.256;10.084;2023-08-06T13:51:36;0.10;;;0.10;;
21681;SDS011;11002;48.256;10.084;2023-08-06T13:54:03;0.10;;;0.10;;
21681;SDS011;11002;48.256;10.084;2023-08-06T13:56:32;0.20;;;0.10;;
21681;SDS011;11002;48.256;10.084;2023-08-06T13:58:59;0.20;;;0.10;;
21681;SDS011;11002;48.256;10.084;2023-08-06T14:01:26;0.88;;;0.10;;
21681;SDS011;11002;48.256;10.084;2023-08-06T14:03:54;0.10;;;0.10;;
21681;SDS011;11002;48.256;10.084;2023-08-06T14:06:22;0.20;;;0.00;;
21681;SDS011;11002;48.256;10.084;2023-08-06T14:08:50;0.00;;;0.00;;
21681;SDS011;11002;48.256;10.084;2023-08-06T14:11:17;0.10;;;0.10;;
21681;SDS011;11002;48.256;10.084;2023-08-06T14:13:44;0.05;;;0.05;;
21681;SDS011;11002;48.256;10.084;2023-08-06T14:16:11;0.38;;;0.15;;
21681;SDS011;11002;48.256;10.084;2023-08-06T14:18:38;0.10;;;0.10;;
21681;SDS011;11002;48.256;10.084;2023-08-06T14:21:06;0.00;;;0.00;;
21681;SDS011;11002;48.256;10.084;2023-08-06T14:23:35;0.00;;;0.00;;
21681;SDS011;11002;48.256;10.084;2023-08-06T14:26:02;0.00;;;0.00;;
21681;SDS011;11002;48.256;10.084;2023-08-06T14:28:30;0.03;;;0.03;;
21681;SDS011;11002;48.256;10.084;2023-08-06T14:30:57;0.17;;;0.15;;
21681;SDS011;11002;48.256;10.084;2023-08-06T14:33:24;0.10;;;0.00;;
21681;SDS011;11002;48.256;10.084;2023-08-06T14:35:51;0.00;;;0.00;;
21681;SDS011;11002;48.256;10.084;2023-08-06T14:38:18;0.00;;;0.00;;
21681;SDS011;11002;48.256;10.084;2023-08-06T14:40:47;0.10;;;0.10;;
21681;SDS011;11002;48.256;10.084;2023-08-06T14:43:14;0.10;;;0.10;;